PECK1: Ninnescah River, Peck, KS

Data processed at Fri Jan 05 2018 23:04


All information presented herein is the property of the government of the United States of America and may be revised or deleted at any time without prior notice.
Dissemination of this information without the expressed written consent of the Public Affairs Office, Tulsa District U.S. Army Corps of Engineers is strictly prohibited.
These data are gathered electronically and, as presented, have not undergone any form of quality control. These data are not guaranteed to be valid or correct.
Go to home page.
Go to station list.

Upstream stations:

Downstream station:
Previous Day
Next Day
Current Day
    
SHEF ID:       PECK1     NINNESCAH R NR PECK, KS
STATION TYPE:  

               PRECIP     STAGE  RIV-FLOW  BAT-LOAD
                   in        ft       cfs      volt
              Ccp-Rev   Ccp-Rev   Ccp-Rev   Ccp-Rev
(US/Central)
01/03 00:00      0.00      3.18       198     12.41
01/03 01:00      0.00      3.19       201     12.41
01/03 02:00      0.00      3.20       204     12.41
01/03 03:00      0.00      3.21       207     12.33
01/03 04:00      0.00      3.23       213     12.33
01/03 05:00      0.00      3.24       216     12.33
01/03 06:00      0.00      3.23       213     12.33
01/03 07:00      0.00      3.20       204     12.25
01/03 08:00      0.00      3.18       198     12.25
01/03 09:00      0.00      3.17       195     12.25
01/03 10:00      0.00      3.16       192     12.33
01/03 11:00      0.00      3.18       198     13.44
01/03 12:00      0.00      3.22       210     13.92
01/03 13:00      0.00      3.24       216     13.92
01/03 14:00      0.00      3.28       229     13.92
01/03 15:00      0.00      3.29       232     13.92
01/03 16:00      0.00      3.29       232     13.84
01/03 17:00      0.00      3.28       229     13.68
01/03 18:00      0.00      3.28       229     13.21
01/03 19:00      0.00      3.20       204     12.65
01/03 20:00      0.00      3.25       219     12.65
01/03 21:00      0.00      3.25       219     12.57
01/03 22:00      0.00      3.24       216     12.57
01/03 23:00      0.00      3.24       216      ----